sensor_id;sensor_type;location;lat;lon;timestamp;P1;durP1;ratioP1;P2;durP2;ratioP2
13641;SDS011;6894;52.196;9.904;2023-11-18T00:01:00;19.40;;;14.97;;
13641;SDS011;6894;52.196;9.904;2023-11-18T00:03:29;17.77;;;13.57;;
13641;SDS011;6894;52.196;9.904;2023-11-18T00:05:56;17.67;;;14.43;;
13641;SDS011;6894;52.196;9.904;2023-11-18T00:08:23;15.63;;;14.07;;
13641;SDS011;6894;52.196;9.904;2023-11-18T00:10:50;23.77;;;17.77;;
13641;SDS011;6894;52.196;9.904;2023-11-18T00:13:16;26.23;;;19.00;;
13641;SDS011;6894;52.196;9.904;2023-11-18T00:15:43;28.07;;;18.50;;
13641;SDS011;6894;52.196;9.904;2023-11-18T00:18:11;22.93;;;18.27;;
13641;SDS011;6894;52.196;9.904;2023-11-18T00:20:39;20.13;;;17.40;;
13641;SDS011;6894;52.196;9.904;2023-11-18T00:23:05;18.20;;;16.10;;
13641;SDS011;6894;52.196;9.904;2023-11-18T00:25:32;19.30;;;17.30;;
13641;SDS011;6894;52.196;9.904;2023-11-18T00:28:01;22.83;;;16.77;;
13641;SDS011;6894;52.196;9.904;2023-11-18T00:30:28;20.97;;;15.97;;
13641;SDS011;6894;52.196;9.904;2023-11-18T00:32:55;17.53;;;15.67;;
13641;SDS011;6894;52.196;9.904;2023-11-18T00:35:21;28.93;;;19.37;;
13641;SDS011;6894;52.196;9.904;2023-11-18T00:37:49;20.03;;;17.03;;
13641;SDS011;6894;52.196;9.904;2023-11-18T00:40:16;24.27;;;17.87;;
13641;SDS011;6894;52.196;9.904;2023-11-18T00:42:43;18.50;;;15.93;;
13641;SDS011;6894;52.196;9.904;2023-11-18T00:45:11;57.27;;;26.87;;
13641;SDS011;6894;52.196;9.904;2023-11-18T00:47:38;17.90;;;15.73;;
13641;SDS011;6894;52.196;9.904;2023-11-18T00:50:06;24.33;;;17.87;;
13641;SDS011;6894;52.196;9.904;2023-11-18T00:52:34;24.70;;;18.07;;
13641;SDS011;6894;52.196;9.904;2023-11-18T00:55:05;22.83;;;18.50;;
13641;SDS011;6894;52.196;9.904;2023-11-18T00:57:32;17.90;;;15.83;;
13641;SDS011;6894;52.196;9.904;2023-11-18T00:59:59;25.00;;;18.30;;
13641;SDS011;6894;52.196;9.904;2023-11-18T01:02:26;19.63;;;17.63;;
13641;SDS011;6894;52.196;9.904;2023-11-18T01:04:52;23.77;;;19.47;;
13641;SDS011;6894;52.196;9.904;2023-11-18T01:07:20;25.50;;;19.73;;
13641;SDS011;6894;52.196;9.904;2023-11-18T01:09:47;20.20;;;17.70;;
13641;SDS011;6894;52.196;9.904;2023-11-18T01:12:15;19.17;;;17.17;;
13641;SDS011;6894;52.196;9.904;2023-11-18T01:14:42;23.30;;;18.30;;
13641;SDS011;6894;52.196;9.904;2023-11-18T01:17:08;19.50;;;17.00;;
13641;SDS011;6894;52.196;9.904;2023-11-18T01:19:35;25.37;;;18.80;;
13641;SDS011;6894;52.196;9.904;2023-11-18T01:22:03;21.60;;;17.73;;
13641;SDS011;6894;52.196;9.904;2023-11-18T01:24:30;22.40;;;18.33;;
13641;SDS011;6894;52.196;9.904;2023-11-18T01:26:57;19.63;;;17.53;;
13641;SDS011;6894;52.196;9.904;2023-11-18T01:29:26;22.20;;;17.90;;
13641;SDS011;6894;52.196;9.904;2023-11-18T01:31:53;19.23;;;17.23;;
13641;SDS011;6894;52.196;9.904;2023-11-18T01:34:21;25.60;;;18.37;;
13641;SDS011;6894;52.196;9.904;2023-11-18T01:36:48;20.93;;;17.77;;
13641;SDS011;6894;52.196;9.904;2023-11-18T01:39:15;21.43;;;16.97;;
13641;SDS011;6894;52.196;9.904;2023-11-18T01:41:43;21.67;;;17.70;;
13641;SDS011;6894;52.196;9.904;2023-11-18T01:44:09;18.37;;;16.57;;
13641;SDS011;6894;52.196;9.904;2023-11-18T01:46:40;25.27;;;19.07;;
13641;SDS011;6894;52.196;9.904;2023-11-18T01:49:09;19.00;;;17.10;;
13641;SDS011;6894;52.196;9.904;2023-11-18T01:51:38;19.53;;;17.57;;
13641;SDS011;6894;52.196;9.904;2023-11-18T01:54:06;20.93;;;18.87;;
13641;SDS011;6894;52.196;9.904;2023-11-18T01:56:37;21.50;;;18.20;;
13641;SDS011;6894;52.196;9.904;2023-11-18T01:59:04;18.33;;;16.53;;
13641;SDS011;6894;52.196;9.904;2023-11-18T02:01:34;19.70;;;17.43;;
13641;SDS011;6894;52.196;9.904;2023-11-18T02:04:02;29.13;;;21.23;;
13641;SDS011;6894;52.196;9.904;2023-11-18T02:06:32;21.93;;;19.00;;
13641;SDS011;6894;52.196;9.904;2023-11-18T02:09:01;24.93;;;19.97;;
13641;SDS011;6894;52.196;9.904;2023-11-18T02:11:30;22.90;;;20.27;;
13641;SDS011;6894;52.196;9.904;2023-11-18T02:14:06;21.70;;;18.50;;
13641;SDS011;6894;52.196;9.904;2023-11-18T02:16:35;27.57;;;20.30;;
13641;SDS011;6894;52.196;9.904;2023-11-18T02:19:05;22.53;;;18.17;;
13641;SDS011;6894;52.196;9.904;2023-11-18T02:21:43;34.03;;;20.63;;
13641;SDS011;6894;52.196;9.904;2023-11-18T02:24:10;26.63;;;18.80;;
13641;SDS011;6894;52.196;9.904;2023-11-18T02:26:51;31.37;;;20.47;;
13641;SDS011;6894;52.196;9.904;2023-11-18T02:29:18;23.27;;;19.17;;
13641;SDS011;6894;52.196;9.904;2023-11-18T02:31:44;26.93;;;18.50;;
13641;SDS011;6894;52.196;9.904;2023-11-18T02:34:17;29.67;;;20.17;;
13641;SDS011;6894;52.196;9.904;2023-11-18T02:36:50;22.47;;;18.50;;
13641;SDS011;6894;52.196;9.904;2023-11-18T02:39:20;29.40;;;20.30;;
13641;SDS011;6894;52.196;9.904;2023-11-18T02:41:48;26.47;;;20.33;;
13641;SDS011;6894;52.196;9.904;2023-11-18T02:44:21;36.67;;;21.03;;
13641;SDS011;6894;52.196;9.904;2023-11-18T02:46:50;25.20;;;18.67;;
13641;SDS011;6894;52.196;9.904;2023-11-18T02:49:17;35.40;;;21.20;;
13641;SDS011;6894;52.196;9.904;2023-11-18T02:51:44;26.87;;;20.30;;
13641;SDS011;6894;52.196;9.904;2023-11-18T02:54:12;23.13;;;18.63;;
13641;SDS011;6894;52.196;9.904;2023-11-18T02:56:41;31.73;;;21.50;;
13641;SDS011;6894;52.196;9.904;2023-11-18T02:59:09;24.33;;;19.33;;
13641;SDS011;6894;52.196;9.904;2023-11-18T03:01:36;31.73;;;21.47;;
13641;SDS011;6894;52.196;9.904;2023-11-18T03:04:04;28.60;;;19.87;;
13641;SDS011;6894;52.196;9.904;2023-11-18T03:06:31;34.80;;;22.30;;
13641;SDS011;6894;52.196;9.904;2023-11-18T03:08:58;26.00;;;19.70;;
13641;SDS011;6894;52.196;9.904;2023-11-18T03:11:25;28.73;;;19.90;;
13641;SDS011;6894;52.196;9.904;2023-11-18T03:13:56;26.83;;;19.37;;
13641;SDS011;6894;52.196;9.904;2023-11-18T03:16:24;32.13;;;20.87;;
13641;SDS011;6894;52.196;9.904;2023-11-18T03:18:51;30.33;;;19.50;;
13641;SDS011;6894;52.196;9.904;2023-11-18T03:21:18;31.40;;;19.40;;
13641;SDS011;6894;52.196;9.904;2023-11-18T03:23:45;24.90;;;18.73;;
13641;SDS011;6894;52.196;9.904;2023-11-18T03:26:12;36.80;;;21.80;;
13641;SDS011;6894;52.196;9.904;2023-11-18T03:28:39;27.10;;;18.27;;
13641;SDS011;6894;52.196;9.904;2023-11-18T03:31:06;33.77;;;21.37;;
13641;SDS011;6894;52.196;9.904;2023-11-18T03:33:35;27.37;;;18.93;;
13641;SDS011;6894;52.196;9.904;2023-11-18T03:36:02;32.53;;;20.93;;
13641;SDS011;6894;52.196;9.904;2023-11-18T03:38:29;23.43;;;18.50;;
13641;SDS011;6894;52.196;9.904;2023-11-18T03:40:56;33.93;;;20.53;;
13641;SDS011;6894;52.196;9.904;2023-11-18T03:43:23;26.23;;;18.43;;
13641;SDS011;6894;52.196;9.904;2023-11-18T03:45:50;34.73;;;21.33;;
13641;SDS011;6894;52.196;9.904;2023-11-18T03:48:21;28.97;;;21.30;;
13641;SDS011;6894;52.196;9.904;2023-11-18T03:50:49;35.97;;;21.13;;
13641;SDS011;6894;52.196;9.904;2023-11-18T03:53:16;27.00;;;19.60;;
13641;SDS011;6894;52.196;9.904;2023-11-18T03:55:43;43.83;;;24.93;;
13641;SDS011;6894;52.196;9.904;2023-11-18T03:58:09;32.37;;;20.97;;
13641;SDS011;6894;52.196;9.904;2023-11-18T04:00:36;42.27;;;24.93;;
13641;SDS011;6894;52.196;9.904;2023-11-18T04:03:03;25.37;;;20.27;;
13641;SDS011;6894;52.196;9.904;2023-11-18T04:05:32;32.03;;;20.00;;
13641;SDS011;6894;52.196;9.904;2023-11-18T04:08:01;23.33;;;18.53;;
13641;SDS011;6894;52.196;9.904;2023-11-18T04:10:27;36.97;;;20.07;;
13641;SDS011;6894;52.196;9.904;2023-11-18T04:12:54;26.80;;;19.90;;
13641;SDS011;6894;52.196;9.904;2023-11-18T04:15:22;34.40;;;21.33;;
13641;SDS011;6894;52.196;9.904;2023-11-18T04:17:49;24.40;;;18.83;;
13641;SDS011;6894;52.196;9.904;2023-11-18T04:20:17;26.37;;;19.73;;
13641;SDS011;6894;52.196;9.904;2023-11-18T04:22:44;34.47;;;20.83;;
13641;SDS011;6894;52.196;9.904;2023-11-18T04:25:12;24.97;;;17.80;;
13641;SDS011;6894;52.196;9.904;2023-11-18T04:27:40;31.00;;;19.83;;
13641;SDS011;6894;52.196;9.904;2023-11-18T04:30:07;28.70;;;20.43;;
13641;SDS011;6894;52.196;9.904;2023-11-18T04:32:34;28.43;;;18.90;;
13641;SDS011;6894;52.196;9.904;2023-11-18T04:35:02;34.77;;;21.30;;
13641;SDS011;6894;52.196;9.904;2023-11-18T04:37:33;26.87;;;19.63;;
13641;SDS011;6894;52.196;9.904;2023-11-18T04:40:00;34.60;;;22.93;;
13641;SDS011;6894;52.196;9.904;2023-11-18T04:42:29;37.17;;;21.23;;
13641;SDS011;6894;52.196;9.904;2023-11-18T04:44:55;31.40;;;21.20;;
13641;SDS011;6894;52.196;9.904;2023-11-18T04:47:24;29.03;;;20.17;;
13641;SDS011;6894;52.196;9.904;2023-11-18T04:49:51;29.33;;;20.83;;
13641;SDS011;6894;52.196;9.904;2023-11-18T04:52:19;37.50;;;22.27;;
13641;SDS011;6894;52.196;9.904;2023-11-18T04:54:45;31.17;;;20.50;;
13641;SDS011;6894;52.196;9.904;2023-11-18T04:57:13;27.27;;;19.87;;
13641;SDS011;6894;52.196;9.904;2023-11-18T04:59:41;32.23;;;21.50;;
13641;SDS011;6894;52.196;9.904;2023-11-18T05:02:08;33.23;;;22.43;;
13641;SDS011;6894;52.196;9.904;2023-11-18T05:04:34;36.80;;;22.03;;
13641;SDS011;6894;52.196;9.904;2023-11-18T05:07:01;37.07;;;22.53;;
13641;SDS011;6894;52.196;9.904;2023-11-18T05:09:29;39.13;;;22.30;;
13641;SDS011;6894;52.196;9.904;2023-11-18T05:11:57;33.50;;;21.67;;
13641;SDS011;6894;52.196;9.904;2023-11-18T05:14:24;37.37;;;22.47;;
13641;SDS011;6894;52.196;9.904;2023-11-18T05:16:52;37.97;;;21.23;;
13641;SDS011;6894;52.196;9.904;2023-11-18T05:19:19;30.13;;;20.13;;
13641;SDS011;6894;52.196;9.904;2023-11-18T05:21:46;33.07;;;21.90;;
13641;SDS011;6894;52.196;9.904;2023-11-18T05:24:14;39.07;;;21.10;;
13641;SDS011;6894;52.196;9.904;2023-11-18T05:26:41;35.83;;;21.37;;
13641;SDS011;6894;52.196;9.904;2023-11-18T05:29:07;33.30;;;21.43;;
13641;SDS011;6894;52.196;9.904;2023-11-18T05:31:35;34.73;;;20.97;;
13641;SDS011;6894;52.196;9.904;2023-11-18T05:34:03;48.10;;;22.43;;
13641;SDS011;6894;52.196;9.904;2023-11-18T05:36:30;36.73;;;21.03;;
13641;SDS011;6894;52.196;9.904;2023-11-18T05:39:02;37.53;;;21.70;;
13641;SDS011;6894;52.196;9.904;2023-11-18T05:41:29;33.97;;;20.97;;
13641;SDS011;6894;52.196;9.904;2023-11-18T05:43:57;42.93;;;23.23;;
13641;SDS011;6894;52.196;9.904;2023-11-18T05:46:23;40.70;;;23.23;;
13641;SDS011;6894;52.196;9.904;2023-11-18T05:48:53;38.80;;;22.00;;
13641;SDS011;6894;52.196;9.904;2023-11-18T05:51:21;45.03;;;24.10;;
13641;SDS011;6894;52.196;9.904;2023-11-18T05:53:49;40.20;;;22.83;;
13641;SDS011;6894;52.196;9.904;2023-11-18T05:56:17;47.33;;;22.73;;
13641;SDS011;6894;52.196;9.904;2023-11-18T05:58:44;35.30;;;20.80;;
13641;SDS011;6894;52.196;9.904;2023-11-18T06:01:11;47.40;;;23.20;;
13641;SDS011;6894;52.196;9.904;2023-11-18T06:03:38;39.40;;;21.97;;
13641;SDS011;6894;52.196;9.904;2023-11-18T06:06:06;40.50;;;22.83;;
13641;SDS011;6894;52.196;9.904;2023-11-18T06:08:35;40.83;;;22.67;;
13641;SDS011;6894;52.196;9.904;2023-11-18T06:11:03;41.07;;;23.93;;
13641;SDS011;6894;52.196;9.904;2023-11-18T06:13:38;49.83;;;22.97;;
13641;SDS011;6894;52.196;9.904;2023-11-18T06:16:07;35.70;;;22.37;;
13641;SDS011;6894;52.196;9.904;2023-11-18T06:18:39;42.97;;;23.37;;
13641;SDS011;6894;52.196;9.904;2023-11-18T06:21:06;37.87;;;21.57;;
13641;SDS011;6894;52.196;9.904;2023-11-18T06:23:35;43.83;;;21.93;;
13641;SDS011;6894;52.196;9.904;2023-11-18T06:26:02;35.97;;;20.63;;
13641;SDS011;6894;52.196;9.904;2023-11-18T06:28:29;47.37;;;22.97;;
13641;SDS011;6894;52.196;9.904;2023-11-18T06:30:56;38.00;;;21.87;;
13641;SDS011;6894;52.196;9.904;2023-11-18T06:33:23;44.47;;;22.73;;
13641;SDS011;6894;52.196;9.904;2023-11-18T06:35:52;40.13;;;22.07;;
13641;SDS011;6894;52.196;9.904;2023-11-18T06:38:21;45.37;;;23.20;;
13641;SDS011;6894;52.196;9.904;2023-11-18T06:40:49;40.23;;;20.70;;
13641;SDS011;6894;52.196;9.904;2023-11-18T06:43:17;42.37;;;21.03;;
13641;SDS011;6894;52.196;9.904;2023-11-18T06:45:44;43.83;;;22.87;;
13641;SDS011;6894;52.196;9.904;2023-11-18T06:48:12;39.30;;;21.30;;
13641;SDS011;6894;52.196;9.904;2023-11-18T06:50:39;45.93;;;22.43;;
13641;SDS011;6894;52.196;9.904;2023-11-18T06:53:09;39.20;;;20.90;;
13641;SDS011;6894;52.196;9.904;2023-11-18T06:55:36;44.53;;;21.20;;
13641;SDS011;6894;52.196;9.904;2023-11-18T06:58:04;45.73;;;21.90;;
13641;SDS011;6894;52.196;9.904;2023-11-18T07:00:31;40.63;;;22.10;;
13641;SDS011;6894;52.196;9.904;2023-11-18T07:02:58;35.03;;;20.93;;
13641;SDS011;6894;52.196;9.904;2023-11-18T07:05:26;46.73;;;22.60;;
13641;SDS011;6894;52.196;9.904;2023-11-18T07:07:53;39.63;;;21.53;;
13641;SDS011;6894;52.196;9.904;2023-11-18T07:10:20;41.93;;;22.47;;
13641;SDS011;6894;52.196;9.904;2023-11-18T07:12:47;40.83;;;22.30;;
13641;SDS011;6894;52.196;9.904;2023-11-18T07:15:15;43.87;;;21.93;;
13641;SDS011;6894;52.196;9.904;2023-11-18T07:17:42;35.60;;;20.00;;
13641;SDS011;6894;52.196;9.904;2023-11-18T07:20:09;36.70;;;20.77;;
13641;SDS011;6894;52.196;9.904;2023-11-18T07:22:38;38.00;;;20.83;;
13641;SDS011;6894;52.196;9.904;2023-11-18T07:25:06;49.80;;;23.63;;
13641;SDS011;6894;52.196;9.904;2023-11-18T07:27:34;37.27;;;20.73;;
13641;SDS011;6894;52.196;9.904;2023-11-18T07:30:01;49.60;;;25.77;;
13641;SDS011;6894;52.196;9.904;2023-11-18T07:32:32;39.10;;;21.87;;
13641;SDS011;6894;52.196;9.904;2023-11-18T07:34:59;38.13;;;21.33;;
13641;SDS011;6894;52.196;9.904;2023-11-18T07:37:26;50.57;;;24.17;;
13641;SDS011;6894;52.196;9.904;2023-11-18T07:39:53;38.27;;;20.47;;
13641;SDS011;6894;52.196;9.904;2023-11-18T07:42:20;42.27;;;21.50;;
13641;SDS011;6894;52.196;9.904;2023-11-18T07:44:47;38.80;;;22.13;;
13641;SDS011;6894;52.196;9.904;2023-11-18T07:47:14;38.03;;;21.83;;
13641;SDS011;6894;52.196;9.904;2023-11-18T07:49:42;46.97;;;25.20;;
13641;SDS011;6894;52.196;9.904;2023-11-18T07:52:10;37.20;;;22.73;;
13641;SDS011;6894;52.196;9.904;2023-11-18T07:54:37;53.23;;;24.33;;
13641;SDS011;6894;52.196;9.904;2023-11-18T07:57:04;38.70;;;22.47;;
13641;SDS011;6894;52.196;9.904;2023-11-18T07:59:35;57.63;;;26.17;;
13641;SDS011;6894;52.196;9.904;2023-11-18T08:02:02;44.73;;;23.67;;
13641;SDS011;6894;52.196;9.904;2023-11-18T08:04:33;62.30;;;25.60;;
13641;SDS011;6894;52.196;9.904;2023-11-18T08:07:02;40.37;;;22.13;;
13641;SDS011;6894;52.196;9.904;2023-11-18T08:09:30;51.57;;;23.37;;
13641;SDS011;6894;52.196;9.904;2023-11-18T08:11:57;37.17;;;21.30;;
13641;SDS011;6894;52.196;9.904;2023-11-18T08:14:24;38.83;;;21.60;;
13641;SDS011;6894;52.196;9.904;2023-11-18T08:16:50;45.43;;;22.73;;
13641;SDS011;6894;52.196;9.904;2023-11-18T08:19:18;43.17;;;22.90;;
13641;SDS011;6894;52.196;9.904;2023-11-18T08:21:44;36.73;;;21.47;;
13641;SDS011;6894;52.196;9.904;2023-11-18T08:24:13;49.23;;;22.33;;
13641;SDS011;6894;52.196;9.904;2023-11-18T08:26:39;41.87;;;23.60;;
13641;SDS011;6894;52.196;9.904;2023-11-18T08:29:06;39.47;;;22.13;;
13641;SDS011;6894;52.196;9.904;2023-11-18T08:31:33;44.30;;;23.60;;
13641;SDS011;6894;52.196;9.904;2023-11-18T08:34:00;39.00;;;22.43;;
13641;SDS011;6894;52.196;9.904;2023-11-18T08:36:26;43.17;;;23.17;;
13641;SDS011;6894;52.196;9.904;2023-11-18T08:38:53;35.37;;;21.53;;
13641;SDS011;6894;52.196;9.904;2023-11-18T08:41:22;41.93;;;21.23;;
13641;SDS011;6894;52.196;9.904;2023-11-18T08:43:49;39.80;;;21.90;;
13641;SDS011;6894;52.196;9.904;2023-11-18T08:46:17;52.83;;;23.13;;
13641;SDS011;6894;52.196;9.904;2023-11-18T08:48:43;45.40;;;25.13;;
13641;SDS011;6894;52.196;9.904;2023-11-18T08:51:10;61.17;;;26.23;;
13641;SDS011;6894;52.196;9.904;2023-11-18T08:53:38;44.60;;;23.70;;
13641;SDS011;6894;52.196;9.904;2023-11-18T08:56:07;58.30;;;24.63;;
13641;SDS011;6894;52.196;9.904;2023-11-18T08:58:40;39.47;;;20.17;;
13641;SDS011;6894;52.196;9.904;2023-11-18T09:01:09;55.33;;;24.00;;
13641;SDS011;6894;52.196;9.904;2023-11-18T09:03:40;48.07;;;24.83;;
13641;SDS011;6894;52.196;9.904;2023-11-18T09:06:13;48.63;;;21.67;;
13641;SDS011;6894;52.196;9.904;2023-11-18T09:08:43;40.70;;;20.63;;
13641;SDS011;6894;52.196;9.904;2023-11-18T09:11:11;39.50;;;20.50;;
13641;SDS011;6894;52.196;9.904;2023-11-18T09:13:41;48.67;;;19.20;;
13641;SDS011;6894;52.196;9.904;2023-11-18T09:16:10;38.57;;;21.13;;
13641;SDS011;6894;52.196;9.904;2023-11-18T09:18:38;41.50;;;19.87;;
13641;SDS011;6894;52.196;9.904;2023-11-18T09:21:06;36.47;;;19.70;;
13641;SDS011;6894;52.196;9.904;2023-11-18T09:23:39;43.17;;;20.93;;
13641;SDS011;6894;52.196;9.904;2023-11-18T09:26:06;34.23;;;18.67;;
13641;SDS011;6894;52.196;9.904;2023-11-18T09:28:33;35.40;;;18.33;;
13641;SDS011;6894;52.196;9.904;2023-11-18T09:31:02;44.10;;;20.33;;
13641;SDS011;6894;52.196;9.904;2023-11-18T09:33:30;32.43;;;17.87;;
13641;SDS011;6894;52.196;9.904;2023-11-18T09:35:58;40.67;;;18.67;;
13641;SDS011;6894;52.196;9.904;2023-11-18T09:38:26;32.63;;;17.63;;
13641;SDS011;6894;52.196;9.904;2023-11-18T09:40:56;30.80;;;17.57;;
13641;SDS011;6894;52.196;9.904;2023-11-18T09:43:28;22.07;;;14.67;;
13641;SDS011;6894;52.196;9.904;2023-11-18T09:46:00;34.03;;;17.50;;
13641;SDS011;6894;52.196;9.904;2023-11-18T09:48:38;33.03;;;17.43;;
13641;SDS011;6894;52.196;9.904;2023-11-18T09:51:19;37.77;;;18.97;;
13641;SDS011;6894;52.196;9.904;2023-11-18T09:53:48;35.73;;;20.57;;
13641;SDS011;6894;52.196;9.904;2023-11-18T09:56:18;32.97;;;14.13;;
13641;SDS011;6894;52.196;9.904;2023-11-18T09:58:54;20.50;;;12.13;;
13641;SDS011;6894;52.196;9.904;2023-11-18T10:01:30;13.33;;;9.47;;
13641;SDS011;6894;52.196;9.904;2023-11-18T10:04:01;15.47;;;9.20;;
13641;SDS011;6894;52.196;9.904;2023-11-18T10:06:31;8.97;;;7.07;;
13641;SDS011;6894;52.196;9.904;2023-11-18T10:09:00;11.00;;;6.63;;
13641;SDS011;6894;52.196;9.904;2023-11-18T10:11:40;9.17;;;6.93;;
13641;SDS011;6894;52.196;9.904;2023-11-18T10:14:07;10.17;;;6.60;;
13641;SDS011;6894;52.196;9.904;2023-11-18T10:16:36;14.13;;;9.37;;
13641;SDS011;6894;52.196;9.904;2023-11-18T10:19:04;11.23;;;7.17;;
13641;SDS011;6894;52.196;9.904;2023-11-18T10:21:34;10.83;;;8.10;;
13641;SDS011;6894;52.196;9.904;2023-11-18T10:24:05;13.00;;;9.43;;
13641;SDS011;6894;52.196;9.904;2023-11-18T10:26:39;12.30;;;9.30;;
13641;SDS011;6894;52.196;9.904;2023-11-18T10:29:06;17.10;;;9.47;;
13641;SDS011;6894;52.196;9.904;2023-11-18T10:31:36;9.30;;;7.30;;
13641;SDS011;6894;52.196;9.904;2023-11-18T10:34:11;9.87;;;7.10;;
13641;SDS011;6894;52.196;9.904;2023-11-18T10:36:40;9.23;;;6.90;;
13641;SDS011;6894;52.196;9.904;2023-11-18T10:39:10;8.07;;;6.23;;
13641;SDS011;6894;52.196;9.904;2023-11-18T10:41:41;9.20;;;6.27;;
13641;SDS011;6894;52.196;9.904;2023-11-18T10:44:08;8.07;;;5.83;;
13641;SDS011;6894;52.196;9.904;2023-11-18T10:46:40;11.30;;;6.53;;
13641;SDS011;6894;52.196;9.904;2023-11-18T10:49:07;8.87;;;5.97;;
13641;SDS011;6894;52.196;9.904;2023-11-18T10:51:35;7.83;;;6.27;;
13641;SDS011;6894;52.196;9.904;2023-11-18T10:54:04;9.60;;;6.40;;
13641;SDS011;6894;52.196;9.904;2023-11-18T10:56:40;9.33;;;5.53;;
13641;SDS011;6894;52.196;9.904;2023-11-18T10:59:12;9.00;;;5.90;;
13641;SDS011;6894;52.196;9.904;2023-11-18T11:01:43;9.07;;;5.53;;
13641;SDS011;6894;52.196;9.904;2023-11-18T11:04:14;7.67;;;5.80;;
13641;SDS011;6894;52.196;9.904;2023-11-18T11:06:46;8.20;;;5.63;;
13641;SDS011;6894;52.196;9.904;2023-11-18T11:09:18;7.27;;;5.70;;
13641;SDS011;6894;52.196;9.904;2023-11-18T11:11:50;9.13;;;5.77;;
13641;SDS011;6894;52.196;9.904;2023-11-18T11:14:21;11.00;;;6.13;;
13641;SDS011;6894;52.196;9.904;2023-11-18T11:16:54;7.90;;;5.63;;
13641;SDS011;6894;52.196;9.904;2023-11-18T11:19:24;13.40;;;6.60;;
13641;SDS011;6894;52.196;9.904;2023-11-18T11:21:55;7.50;;;5.70;;
13641;SDS011;6894;52.196;9.904;2023-11-18T11:24:29;9.63;;;5.63;;
13641;SDS011;6894;52.196;9.904;2023-11-18T11:27:17;8.50;;;4.87;;
13641;SDS011;6894;52.196;9.904;2023-11-18T11:29:56;6.63;;;5.13;;
13641;SDS011;6894;52.196;9.904;2023-11-18T11:32:28;6.70;;;5.03;;
13641;SDS011;6894;52.196;9.904;2023-11-18T11:35:05;5.07;;;4.50;;
13641;SDS011;6894;52.196;9.904;2023-11-18T11:37:42;7.13;;;5.33;;
13641;SDS011;6894;52.196;9.904;2023-11-18T11:40:10;8.63;;;5.57;;
13641;SDS011;6894;52.196;9.904;2023-11-18T11:42:41;5.17;;;4.53;;
13641;SDS011;6894;52.196;9.904;2023-11-18T11:45:09;6.07;;;4.90;;
13641;SDS011;6894;52.196;9.904;2023-11-18T11:47:46;7.20;;;5.20;;
13641;SDS011;6894;52.196;9.904;2023-11-18T11:50:17;5.80;;;5.13;;
13641;SDS011;6894;52.196;9.904;2023-11-18T11:52:58;7.47;;;5.73;;
13641;SDS011;6894;52.196;9.904;2023-11-18T11:55:33;7.53;;;5.33;;
13641;SDS011;6894;52.196;9.904;2023-11-18T12:00:52;7.77;;;5.60;;
13641;SDS011;6894;52.196;9.904;2023-11-18T12:03:20;7.83;;;5.77;;
13641;SDS011;6894;52.196;9.904;2023-11-18T12:05:48;7.20;;;5.77;;
13641;SDS011;6894;52.196;9.904;2023-11-18T12:08:16;6.87;;;5.67;;
13641;SDS011;6894;52.196;9.904;2023-11-18T12:10:50;9.53;;;6.17;;
13641;SDS011;6894;52.196;9.904;2023-11-18T12:13:18;7.73;;;5.90;;
13641;SDS011;6894;52.196;9.904;2023-11-18T12:15:49;8.53;;;5.60;;
13641;SDS011;6894;52.196;9.904;2023-11-18T12:18:23;9.73;;;6.47;;
13641;SDS011;6894;52.196;9.904;2023-11-18T12:20:50;8.40;;;6.30;;
13641;SDS011;6894;52.196;9.904;2023-11-18T12:23:20;7.57;;;6.03;;
13641;SDS011;6894;52.196;9.904;2023-11-18T12:25:49;7.70;;;6.43;;
13641;SDS011;6894;52.196;9.904;2023-11-18T12:28:19;6.53;;;5.50;;
13641;SDS011;6894;52.196;9.904;2023-11-18T12:30:52;7.80;;;5.87;;
13641;SDS011;6894;52.196;9.904;2023-11-18T12:33:22;7.83;;;6.20;;
13641;SDS011;6894;52.196;9.904;2023-11-18T12:36:03;7.40;;;5.77;;
13641;SDS011;6894;52.196;9.904;2023-11-18T12:39:02;10.13;;;6.37;;
13641;SDS011;6894;52.196;9.904;2023-11-18T12:41:55;8.80;;;5.10;;
13641;SDS011;6894;52.196;9.904;2023-11-18T12:44:31;8.00;;;5.20;;
13641;SDS011;6894;52.196;9.904;2023-11-18T12:47:04;6.77;;;5.10;;
13641;SDS011;6894;52.196;9.904;2023-11-18T12:49:41;6.43;;;4.87;;
13641;SDS011;6894;52.196;9.904;2023-11-18T12:52:08;7.60;;;5.43;;
13641;SDS011;6894;52.196;9.904;2023-11-18T12:54:36;6.70;;;4.97;;
13641;SDS011;6894;52.196;9.904;2023-11-18T12:57:06;5.90;;;4.67;;
13641;SDS011;6894;52.196;9.904;2023-11-18T12:59:34;7.97;;;4.93;;
13641;SDS011;6894;52.196;9.904;2023-11-18T13:02:01;8.50;;;4.73;;
13641;SDS011;6894;52.196;9.904;2023-11-18T13:04:29;5.33;;;4.73;;
13641;SDS011;6894;52.196;9.904;2023-11-18T13:06:58;7.17;;;5.17;;
13641;SDS011;6894;52.196;9.904;2023-11-18T13:09:25;6.47;;;4.63;;
13641;SDS011;6894;52.196;9.904;2023-11-18T13:11:56;6.50;;;4.93;;
13641;SDS011;6894;52.196;9.904;2023-11-18T13:14:24;4.53;;;3.83;;
13641;SDS011;6894;52.196;9.904;2023-11-18T13:16:52;8.23;;;4.83;;
13641;SDS011;6894;52.196;9.904;2023-11-18T13:19:25;5.63;;;4.43;;
13641;SDS011;6894;52.196;9.904;2023-11-18T13:21:56;7.93;;;5.50;;
13641;SDS011;6894;52.196;9.904;2023-11-18T13:24:25;7.30;;;5.17;;
13641;SDS011;6894;52.196;9.904;2023-11-18T13:26:52;5.00;;;4.37;;
13641;SDS011;6894;52.196;9.904;2023-11-18T13:29:20;5.63;;;4.53;;
13641;SDS011;6894;52.196;9.904;2023-11-18T13:31:48;5.77;;;4.13;;
13641;SDS011;6894;52.196;9.904;2023-11-18T13:34:16;5.50;;;4.80;;
13641;SDS011;6894;52.196;9.904;2023-11-18T13:36:43;5.97;;;4.37;;
13641;SDS011;6894;52.196;9.904;2023-11-18T13:39:16;8.00;;;5.00;;
13641;SDS011;6894;52.196;9.904;2023-11-18T13:41:43;9.47;;;4.90;;
13641;SDS011;6894;52.196;9.904;2023-11-18T13:44:11;7.17;;;5.33;;
13641;SDS011;6894;52.196;9.904;2023-11-18T13:46:38;4.77;;;4.30;;
13641;SDS011;6894;52.196;9.904;2023-11-18T13:49:06;5.70;;;4.20;;
13641;SDS011;6894;52.196;9.904;2023-11-18T13:51:33;10.73;;;4.80;;
13641;SDS011;6894;52.196;9.904;2023-11-18T13:54:01;5.00;;;4.23;;
13641;SDS011;6894;52.196;9.904;2023-11-18T13:56:31;6.83;;;4.20;;
13641;SDS011;6894;52.196;9.904;2023-11-18T13:58:58;6.50;;;4.77;;
13641;SDS011;6894;52.196;9.904;2023-11-18T14:01:25;5.97;;;4.50;;
13641;SDS011;6894;52.196;9.904;2023-11-18T14:03:53;7.57;;;4.83;;
13641;SDS011;6894;52.196;9.904;2023-11-18T14:06:21;5.30;;;4.50;;
13641;SDS011;6894;52.196;9.904;2023-11-18T14:08:48;7.07;;;5.13;;
13641;SDS011;6894;52.196;9.904;2023-11-18T14:11:15;5.83;;;4.97;;
13641;SDS011;6894;52.196;9.904;2023-11-18T14:13:44;8.10;;;4.77;;
13641;SDS011;6894;52.196;9.904;2023-11-18T14:16:11;5.47;;;4.50;;
13641;SDS011;6894;52.196;9.904;2023-11-18T14:18:41;6.63;;;4.87;;
13641;SDS011;6894;52.196;9.904;2023-11-18T14:21:08;5.67;;;4.90;;
13641;SDS011;6894;52.196;9.904;2023-11-18T14:23:36;6.20;;;4.97;;
13641;SDS011;6894;52.196;9.904;2023-11-18T14:26:04;4.83;;;4.33;;
13641;SDS011;6894;52.196;9.904;2023-11-18T14:28:32;5.57;;;4.90;;
13641;SDS011;6894;52.196;9.904;2023-11-18T14:31:01;6.23;;;4.90;;
13641;SDS011;6894;52.196;9.904;2023-11-18T14:33:29;6.13;;;4.97;;
13641;SDS011;6894;52.196;9.904;2023-11-18T14:35:58;7.57;;;5.20;;
13641;SDS011;6894;52.196;9.904;2023-11-18T14:38:25;6.50;;;5.47;;
13641;SDS011;6894;52.196;9.904;2023-11-18T14:40:52;6.20;;;5.30;;
13641;SDS011;6894;52.196;9.904;2023-11-18T14:43:19;7.90;;;5.33;;
13641;SDS011;6894;52.196;9.904;2023-11-18T14:45:46;6.40;;;5.77;;
13641;SDS011;6894;52.196;9.904;2023-11-18T14:48:15;8.00;;;4.97;;
13641;SDS011;6894;52.196;9.904;2023-11-18T14:50:41;7.00;;;5.57;;
13641;SDS011;6894;52.196;9.904;2023-11-18T14:53:09;8.13;;;6.30;;
13641;SDS011;6894;52.196;9.904;2023-11-18T14:55:36;6.87;;;5.50;;